sensor_id;sensor_type;location;lat;lon;timestamp;P1;durP1;ratioP1;P2;durP2;ratioP2
55692;SDS011;41590;53.366;5.212;2023-02-28T00:00:21;7.82;;;1.95;;
55692;SDS011;41590;53.366;5.212;2023-02-28T00:05:21;5.77;;;0.80;;
55692;SDS011;41590;53.366;5.212;2023-02-28T00:10:23;18.60;;;1.35;;
55692;SDS011;41590;53.366;5.212;2023-02-28T00:12:50;11.50;;;0.98;;
55692;SDS011;41590;53.366;5.212;2023-02-28T00:15:20;8.50;;;1.23;;
55692;SDS011;41590;53.366;5.212;2023-02-28T00:17:47;5.65;;;0.93;;
55692;SDS011;41590;53.366;5.212;2023-02-28T00:20:14;8.60;;;0.85;;
55692;SDS011;41590;53.366;5.212;2023-02-28T00:22:48;4.75;;;0.98;;
55692;SDS011;41590;53.366;5.212;2023-02-28T00:25:17;7.97;;;1.00;;
55692;SDS011;41590;53.366;5.212;2023-02-28T00:27:45;8.43;;;1.02;;
55692;SDS011;41590;53.366;5.212;2023-02-28T00:30:14;8.00;;;1.00;;
55692;SDS011;41590;53.366;5.212;2023-02-28T00:32:41;8.40;;;0.95;;
55692;SDS011;41590;53.366;5.212;2023-02-28T00:37:56;10.48;;;1.10;;
55692;SDS011;41590;53.366;5.212;2023-02-28T00:42:51;9.98;;;1.17;;
55692;SDS011;41590;53.366;5.212;2023-02-28T00:47:48;5.82;;;0.70;;
55692;SDS011;41590;53.366;5.212;2023-02-28T00:50:19;6.00;;;1.00;;
55692;SDS011;41590;53.366;5.212;2023-02-28T00:55:18;9.02;;;0.80;;
55692;SDS011;41590;53.366;5.212;2023-02-28T00:57:44;6.15;;;0.80;;
55692;SDS011;41590;53.366;5.212;2023-02-28T01:00:17;8.27;;;1.35;;
55692;SDS011;41590;53.366;5.212;2023-02-28T01:02:43;5.45;;;0.60;;
55692;SDS011;41590;53.366;5.212;2023-02-28T01:05:11;4.78;;;0.70;;
55692;SDS011;41590;53.366;5.212;2023-02-28T01:07:37;8.18;;;0.70;;
55692;SDS011;41590;53.366;5.212;2023-02-28T01:10:05;6.15;;;0.77;;
55692;SDS011;41590;53.366;5.212;2023-02-28T01:12:37;5.60;;;1.05;;
55692;SDS011;41590;53.366;5.212;2023-02-28T01:15:03;10.52;;;1.05;;
55692;SDS011;41590;53.366;5.212;2023-02-28T01:17:30;5.00;;;0.70;;
55692;SDS011;41590;53.366;5.212;2023-02-28T01:19:58;9.68;;;1.23;;
55692;SDS011;41590;53.366;5.212;2023-02-28T01:22:29;4.50;;;0.77;;
55692;SDS011;41590;53.366;5.212;2023-02-28T01:24:55;11.98;;;1.00;;
55692;SDS011;41590;53.366;5.212;2023-02-28T01:27:23;5.85;;;0.65;;
55692;SDS011;41590;53.366;5.212;2023-02-28T01:29:50;10.63;;;0.88;;
55692;SDS011;41590;53.366;5.212;2023-02-28T01:32:23;7.93;;;0.82;;
55692;SDS011;41590;53.366;5.212;2023-02-28T01:34:54;6.78;;;0.75;;
55692;SDS011;41590;53.366;5.212;2023-02-28T01:37:21;10.73;;;0.77;;
55692;SDS011;41590;53.366;5.212;2023-02-28T01:43:20;4.90;;;0.70;;
55692;SDS011;41590;53.366;5.212;2023-02-28T01:45:48;9.23;;;0.90;;
55692;SDS011;41590;53.366;5.212;2023-02-28T01:50:45;12.52;;;0.77;;
55692;SDS011;41590;53.366;5.212;2023-02-28T01:53:17;7.75;;;0.60;;
55692;SDS011;41590;53.366;5.212;2023-02-28T01:55:48;6.28;;;0.80;;
55692;SDS011;41590;53.366;5.212;2023-02-28T02:01:19;3.78;;;0.90;;
55692;SDS011;41590;53.366;5.212;2023-02-28T02:03:51;6.82;;;0.60;;
55692;SDS011;41590;53.366;5.212;2023-02-28T02:06:25;5.00;;;0.55;;
55692;SDS011;41590;53.366;5.212;2023-02-28T02:11:23;10.73;;;0.88;;
55692;SDS011;41590;53.366;5.212;2023-02-28T02:21:57;11.57;;;0.90;;
55692;SDS011;41590;53.366;5.212;2023-02-28T02:32:43;4.15;;;0.60;;
55692;SDS011;41590;53.366;5.212;2023-02-28T02:35:24;9.18;;;0.73;;
55692;SDS011;41590;53.366;5.212;2023-02-28T02:38:06;7.20;;;1.05;;
55692;SDS011;41590;53.366;5.212;2023-02-28T02:43:46;5.55;;;0.60;;
55692;SDS011;41590;53.366;5.212;2023-02-28T02:49:36;6.00;;;0.77;;
55692;SDS011;41590;53.366;5.212;2023-02-28T02:52:10;6.70;;;0.98;;
55692;SDS011;41590;53.366;5.212;2023-02-28T02:54:40;9.00;;;0.70;;
55692;SDS011;41590;53.366;5.212;2023-02-28T02:57:09;5.63;;;0.60;;
55692;SDS011;41590;53.366;5.212;2023-02-28T02:59:37;4.72;;;0.32;;
55692;SDS011;41590;53.366;5.212;2023-02-28T03:02:12;5.93;;;0.60;;
55692;SDS011;41590;53.366;5.212;2023-02-28T03:07:25;5.07;;;0.40;;
55692;SDS011;41590;53.366;5.212;2023-02-28T03:09:53;7.78;;;0.50;;
55692;SDS011;41590;53.366;5.212;2023-02-28T03:12:19;5.38;;;0.55;;
55692;SDS011;41590;53.366;5.212;2023-02-28T03:30:45;5.88;;;0.70;;
55692;SDS011;41590;53.366;5.212;2023-02-28T03:33:21;14.52;;;1.08;;
55692;SDS011;41590;53.366;5.212;2023-02-28T03:35:53;10.45;;;1.48;;
55692;SDS011;41590;53.366;5.212;2023-02-28T03:38:26;5.68;;;0.70;;
55692;SDS011;41590;53.366;5.212;2023-02-28T03:40:59;8.70;;;1.15;;
55692;SDS011;41590;53.366;5.212;2023-02-28T03:43:28;8.30;;;0.70;;
55692;SDS011;41590;53.366;5.212;2023-02-28T03:45:56;11.80;;;0.80;;
55692;SDS011;41590;53.366;5.212;2023-02-28T03:48:28;7.90;;;0.75;;
55692;SDS011;41590;53.366;5.212;2023-02-28T03:50:57;5.07;;;0.52;;
55692;SDS011;41590;53.366;5.212;2023-02-28T04:04:16;7.10;;;0.82;;
55692;SDS011;41590;53.366;5.212;2023-02-28T04:06:44;10.45;;;0.93;;
55692;SDS011;41590;53.366;5.212;2023-02-28T04:09:13;8.10;;;0.68;;
55692;SDS011;41590;53.366;5.212;2023-02-28T04:14:06;10.68;;;0.85;;
55692;SDS011;41590;53.366;5.212;2023-02-28T04:16:34;13.05;;;1.52;;
55692;SDS011;41590;53.366;5.212;2023-02-28T04:19:01;6.82;;;0.93;;
55692;SDS011;41590;53.366;5.212;2023-02-28T04:21:29;11.13;;;0.85;;
55692;SDS011;41590;53.366;5.212;2023-02-28T04:23:59;8.75;;;0.70;;
55692;SDS011;41590;53.366;5.212;2023-02-28T04:26:36;4.47;;;0.88;;
55692;SDS011;41590;53.366;5.212;2023-02-28T04:29:05;11.73;;;1.27;;
55692;SDS011;41590;53.366;5.212;2023-02-28T04:34:06;9.90;;;1.38;;
55692;SDS011;41590;53.366;5.212;2023-02-28T04:36:32;6.35;;;0.70;;
55692;SDS011;41590;53.366;5.212;2023-02-28T04:38:58;10.25;;;1.00;;
55692;SDS011;41590;53.366;5.212;2023-02-28T04:41:26;8.38;;;1.13;;
55692;SDS011;41590;53.366;5.212;2023-02-28T04:43:52;8.30;;;0.90;;
55692;SDS011;41590;53.366;5.212;2023-02-28T04:46:18;10.55;;;1.02;;
55692;SDS011;41590;53.366;5.212;2023-02-28T04:48:45;9.73;;;1.30;;
55692;SDS011;41590;53.366;5.212;2023-02-28T04:53:48;9.02;;;0.70;;
55692;SDS011;41590;53.366;5.212;2023-02-28T04:56:17;6.97;;;1.00;;
55692;SDS011;41590;53.366;5.212;2023-02-28T04:58:44;6.80;;;1.17;;
55692;SDS011;41590;53.366;5.212;2023-02-28T05:04:04;7.97;;;1.05;;
55692;SDS011;41590;53.366;5.212;2023-02-28T05:06:32;5.93;;;0.55;;
55692;SDS011;41590;53.366;5.212;2023-02-28T05:09:00;10.23;;;1.63;;
55692;SDS011;41590;53.366;5.212;2023-02-28T05:11:32;7.05;;;0.82;;
55692;SDS011;41590;53.366;5.212;2023-02-28T05:14:10;6.20;;;1.00;;
55692;SDS011;41590;53.366;5.212;2023-02-28T05:19:08;7.38;;;0.90;;
55692;SDS011;41590;53.366;5.212;2023-02-28T05:24:09;12.10;;;1.00;;
55692;SDS011;41590;53.366;5.212;2023-02-28T05:26:42;7.43;;;0.90;;
55692;SDS011;41590;53.366;5.212;2023-02-28T05:29:09;9.30;;;1.23;;
55692;SDS011;41590;53.366;5.212;2023-02-28T05:31:37;12.98;;;1.10;;
55692;SDS011;41590;53.366;5.212;2023-02-28T05:34:05;13.10;;;1.30;;
55692;SDS011;41590;53.366;5.212;2023-02-28T05:36:33;9.43;;;1.00;;
55692;SDS011;41590;53.366;5.212;2023-02-28T05:39:01;6.85;;;1.40;;
55692;SDS011;41590;53.366;5.212;2023-02-28T05:41:29;13.07;;;2.30;;
55692;SDS011;41590;53.366;5.212;2023-02-28T05:43:55;8.38;;;1.02;;
55692;SDS011;41590;53.366;5.212;2023-02-28T05:46:26;9.50;;;1.67;;
55692;SDS011;41590;53.366;5.212;2023-02-28T05:48:53;15.80;;;1.70;;
55692;SDS011;41590;53.366;5.212;2023-02-28T05:51:22;13.63;;;2.40;;
55692;SDS011;41590;53.366;5.212;2023-02-28T05:53:49;11.68;;;2.85;;
55692;SDS011;41590;53.366;5.212;2023-02-28T05:58:45;10.45;;;1.27;;
55692;SDS011;41590;53.366;5.212;2023-02-28T06:01:22;8.93;;;3.13;;
55692;SDS011;41590;53.366;5.212;2023-02-28T06:06:18;16.10;;;1.90;;
55692;SDS011;41590;53.366;5.212;2023-02-28T06:14:04;10.90;;;2.22;;
55692;SDS011;41590;53.366;5.212;2023-02-28T06:19:20;6.97;;;1.50;;
55692;SDS011;41590;53.366;5.212;2023-02-28T06:21:49;10.77;;;1.35;;
55692;SDS011;41590;53.366;5.212;2023-02-28T06:24:18;10.48;;;1.63;;
55692;SDS011;41590;53.366;5.212;2023-02-28T06:26:50;12.82;;;1.15;;
55692;SDS011;41590;53.366;5.212;2023-02-28T06:29:17;9.05;;;1.30;;
55692;SDS011;41590;53.366;5.212;2023-02-28T06:31:45;8.10;;;1.30;;
55692;SDS011;41590;53.366;5.212;2023-02-28T06:34:13;9.25;;;1.40;;
55692;SDS011;41590;53.366;5.212;2023-02-28T06:36:41;11.65;;;1.30;;
55692;SDS011;41590;53.366;5.212;2023-02-28T06:39:07;10.07;;;1.50;;
55692;SDS011;41590;53.366;5.212;2023-02-28T06:44:13;11.27;;;0.90;;
55692;SDS011;41590;53.366;5.212;2023-02-28T06:46:44;11.73;;;1.40;;
55692;SDS011;41590;53.366;5.212;2023-02-28T06:49:11;13.13;;;1.42;;
55692;SDS011;41590;53.366;5.212;2023-02-28T06:51:39;15.60;;;1.73;;
55692;SDS011;41590;53.366;5.212;2023-02-28T06:54:06;15.55;;;1.40;;
55692;SDS011;41590;53.366;5.212;2023-02-28T06:56:39;10.20;;;1.23;;
55692;SDS011;41590;53.366;5.212;2023-02-28T06:59:06;16.60;;;1.65;;
55692;SDS011;41590;53.366;5.212;2023-02-28T07:01:32;10.07;;;1.63;;
55692;SDS011;41590;53.366;5.212;2023-02-28T07:03:59;17.05;;;1.95;;
55692;SDS011;41590;53.366;5.212;2023-02-28T07:06:26;12.80;;;1.95;;
55692;SDS011;41590;53.366;5.212;2023-02-28T07:08:53;12.73;;;1.50;;
55692;SDS011;41590;53.366;5.212;2023-02-28T07:11:24;16.35;;;2.42;;
55692;SDS011;41590;53.366;5.212;2023-02-28T07:13:56;14.35;;;1.83;;
55692;SDS011;41590;53.366;5.212;2023-02-28T07:16:29;10.25;;;1.40;;
55692;SDS011;41590;53.366;5.212;2023-02-28T07:21:58;15.73;;;2.08;;
55692;SDS011;41590;53.366;5.212;2023-02-28T07:24:23;12.93;;;2.17;;
55692;SDS011;41590;53.366;5.212;2023-02-28T07:26:54;16.08;;;1.83;;
55692;SDS011;41590;53.366;5.212;2023-02-28T07:29:21;19.63;;;1.95;;
55692;SDS011;41590;53.366;5.212;2023-02-28T07:31:48;14.90;;;1.73;;
55692;SDS011;41590;53.366;5.212;2023-02-28T07:34:15;14.73;;;1.65;;
55692;SDS011;41590;53.366;5.212;2023-02-28T07:36:41;15.15;;;1.92;;
55692;SDS011;41590;53.366;5.212;2023-02-28T07:39:08;12.05;;;1.63;;
55692;SDS011;41590;53.366;5.212;2023-02-28T07:41:36;12.68;;;2.33;;
55692;SDS011;41590;53.366;5.212;2023-02-28T07:44:11;11.90;;;1.40;;
55692;SDS011;41590;53.366;5.212;2023-02-28T07:46:38;15.80;;;2.00;;
55692;SDS011;41590;53.366;5.212;2023-02-28T07:49:05;9.70;;;1.58;;
55692;SDS011;41590;53.366;5.212;2023-02-28T07:51:31;13.43;;;1.50;;
55692;SDS011;41590;53.366;5.212;2023-02-28T07:53:57;12.45;;;1.60;;
55692;SDS011;41590;53.366;5.212;2023-02-28T07:56:24;11.65;;;1.45;;
55692;SDS011;41590;53.366;5.212;2023-02-28T07:58:50;15.68;;;1.55;;
55692;SDS011;41590;53.366;5.212;2023-02-28T08:01:17;16.33;;;2.53;;
55692;SDS011;41590;53.366;5.212;2023-02-28T08:03:45;17.45;;;1.83;;
55692;SDS011;41590;53.366;5.212;2023-02-28T08:06:22;18.15;;;1.92;;
55692;SDS011;41590;53.366;5.212;2023-02-28T08:08:49;8.82;;;2.20;;
55692;SDS011;41590;53.366;5.212;2023-02-28T08:11:16;12.98;;;2.20;;
55692;SDS011;41590;53.366;5.212;2023-02-28T08:13:42;16.20;;;2.10;;
55692;SDS011;41590;53.366;5.212;2023-02-28T08:16:09;17.83;;;2.55;;
55692;SDS011;41590;53.366;5.212;2023-02-28T08:18:36;10.65;;;1.67;;
55692;SDS011;41590;53.366;5.212;2023-02-28T08:21:05;12.00;;;2.42;;
55692;SDS011;41590;53.366;5.212;2023-02-28T08:23:33;9.77;;;1.40;;
55692;SDS011;41590;53.366;5.212;2023-02-28T08:26:02;11.70;;;1.33;;
55692;SDS011;41590;53.366;5.212;2023-02-28T08:30:59;10.10;;;1.45;;
55692;SDS011;41590;53.366;5.212;2023-02-28T08:33:27;12.75;;;1.45;;
55692;SDS011;41590;53.366;5.212;2023-02-28T08:35:55;15.98;;;1.80;;
55692;SDS011;41590;53.366;5.212;2023-02-28T08:38:22;15.30;;;1.80;;
55692;SDS011;41590;53.366;5.212;2023-02-28T08:40:48;21.23;;;3.22;;
55692;SDS011;41590;53.366;5.212;2023-02-28T08:43:14;14.07;;;1.83;;
55692;SDS011;41590;53.366;5.212;2023-02-28T08:45:42;13.55;;;2.03;;
55692;SDS011;41590;53.366;5.212;2023-02-28T08:48:09;15.40;;;1.90;;
55692;SDS011;41590;53.366;5.212;2023-02-28T08:50:35;11.80;;;2.40;;
55692;SDS011;41590;53.366;5.212;2023-02-28T08:53:00;14.38;;;1.80;;
55692;SDS011;41590;53.366;5.212;2023-02-28T08:55:26;12.95;;;2.70;;
55692;SDS011;41590;53.366;5.212;2023-02-28T08:57:53;9.45;;;2.10;;
55692;SDS011;41590;53.366;5.212;2023-02-28T09:00:20;18.92;;;4.40;;
55692;SDS011;41590;53.366;5.212;2023-02-28T09:02:46;11.27;;;4.80;;
55692;SDS011;41590;53.366;5.212;2023-02-28T09:07:45;9.90;;;7.35;;
55692;SDS011;41590;53.366;5.212;2023-02-28T09:10:13;17.02;;;8.70;;
55692;SDS011;41590;53.366;5.212;2023-02-28T09:12:39;13.23;;;8.40;;
55692;SDS011;41590;53.366;5.212;2023-02-28T09:15:07;11.50;;;8.38;;
55692;SDS011;41590;53.366;5.212;2023-02-28T09:17:37;13.00;;;7.70;;
55692;SDS011;41590;53.366;5.212;2023-02-28T09:20:03;16.60;;;7.10;;
55692;SDS011;41590;53.366;5.212;2023-02-28T09:22:30;15.75;;;7.15;;
55692;SDS011;41590;53.366;5.212;2023-02-28T09:24:58;17.80;;;8.82;;
55692;SDS011;41590;53.366;5.212;2023-02-28T09:27:23;16.35;;;9.63;;
55692;SDS011;41590;53.366;5.212;2023-02-28T09:29:50;20.15;;;10.48;;
55692;SDS011;41590;53.366;5.212;2023-02-28T09:32:20;22.25;;;9.75;;
55692;SDS011;41590;53.366;5.212;2023-02-28T09:34:46;18.40;;;8.10;;
55692;SDS011;41590;53.366;5.212;2023-02-28T09:37:14;21.20;;;13.10;;
55692;SDS011;41590;53.366;5.212;2023-02-28T09:39:41;17.70;;;10.55;;
55692;SDS011;41590;53.366;5.212;2023-02-28T09:42:21;19.83;;;10.30;;
55692;SDS011;41590;53.366;5.212;2023-02-28T09:44:50;21.90;;;10.90;;
55692;SDS011;41590;53.366;5.212;2023-02-28T09:58:05;17.60;;;11.15;;
55692;SDS011;41590;53.366;5.212;2023-02-28T10:00:45;14.13;;;10.18;;
55692;SDS011;41590;53.366;5.212;2023-02-28T10:03:32;15.55;;;10.95;;
55692;SDS011;41590;53.366;5.212;2023-02-28T10:08:50;22.55;;;14.38;;
55692;SDS011;41590;53.366;5.212;2023-02-28T10:14:02;20.63;;;10.55;;
55692;SDS011;41590;53.366;5.212;2023-02-28T10:17:04;22.00;;;11.17;;
55692;SDS011;41590;53.366;5.212;2023-02-28T10:25:25;19.30;;;11.27;;
55692;SDS011;41590;53.366;5.212;2023-02-28T10:27:59;21.23;;;12.38;;
55692;SDS011;41590;53.366;5.212;2023-02-28T10:30:37;18.83;;;12.85;;
55692;SDS011;41590;53.366;5.212;2023-02-28T10:33:43;21.15;;;12.32;;
55692;SDS011;41590;53.366;5.212;2023-02-28T10:36:03;16.65;;;11.65;;
55692;SDS011;41590;53.366;5.212;2023-02-28T10:38:34;14.77;;;11.32;;
55692;SDS011;41590;53.366;5.212;2023-02-28T10:41:06;15.30;;;11.63;;
55692;SDS011;41590;53.366;5.212;2023-02-28T10:49:59;10.90;;;9.73;;
55692;SDS011;41590;53.366;5.212;2023-02-28T10:52:40;12.27;;;9.73;;
55692;SDS011;41590;53.366;5.212;2023-02-28T10:55:20;13.93;;;7.85;;
55692;SDS011;41590;53.366;5.212;2023-02-28T11:00:20;13.85;;;9.70;;
55692;SDS011;41590;53.366;5.212;2023-02-28T11:02:57;11.85;;;9.30;;
55692;SDS011;41590;53.366;5.212;2023-02-28T11:08:19;12.07;;;9.35;;
55692;SDS011;41590;53.366;5.212;2023-02-28T11:10:48;15.38;;;8.82;;
55692;SDS011;41590;53.366;5.212;2023-02-28T11:13:31;11.95;;;9.30;;
55692;SDS011;41590;53.366;5.212;2023-02-28T11:16:01;10.45;;;8.35;;
55692;SDS011;41590;53.366;5.212;2023-02-28T11:21:07;12.85;;;9.10;;
55692;SDS011;41590;53.366;5.212;2023-02-28T11:23:36;9.10;;;8.00;;
55692;SDS011;41590;53.366;5.212;2023-02-28T11:26:05;10.90;;;8.45;;
55692;SDS011;41590;53.366;5.212;2023-02-28T11:28:43;9.77;;;7.80;;
55692;SDS011;41590;53.366;5.212;2023-02-28T11:31:17;11.82;;;7.63;;
55692;SDS011;41590;53.366;5.212;2023-02-28T11:33:54;9.48;;;7.65;;
55692;SDS011;41590;53.366;5.212;2023-02-28T11:36:22;9.05;;;7.00;;
55692;SDS011;41590;53.366;5.212;2023-02-28T11:39:03;6.50;;;5.63;;
55692;SDS011;41590;53.366;5.212;2023-02-28T11:47:16;4.47;;;4.05;;
55692;SDS011;41590;53.366;5.212;2023-02-28T11:55:37;4.38;;;3.30;;
55692;SDS011;41590;53.366;5.212;2023-02-28T12:00:57;3.95;;;3.58;;
55692;SDS011;41590;53.366;5.212;2023-02-28T12:03:45;4.07;;;3.15;;
55692;SDS011;41590;53.366;5.212;2023-02-28T12:06:38;5.50;;;3.88;;
55692;SDS011;41590;53.366;5.212;2023-02-28T12:09:37;3.80;;;3.50;;
55692;SDS011;41590;53.366;5.212;2023-02-28T12:12:31;4.13;;;3.67;;
55692;SDS011;41590;53.366;5.212;2023-02-28T12:18:13;4.95;;;3.55;;
55692;SDS011;41590;53.366;5.212;2023-02-28T12:21:01;4.95;;;4.25;;
55692;SDS011;41590;53.366;5.212;2023-02-28T12:26:27;6.65;;;4.55;;
55692;SDS011;41590;53.366;5.212;2023-02-28T12:29:12;5.82;;;4.75;;
55692;SDS011;41590;53.366;5.212;2023-02-28T12:31:53;5.93;;;4.53;;
55692;SDS011;41590;53.366;5.212;2023-02-28T12:34:27;5.13;;;4.45;;
55692;SDS011;41590;53.366;5.212;2023-02-28T12:36:58;5.70;;;3.78;;
55692;SDS011;41590;53.366;5.212;2023-02-28T12:39:28;5.72;;;3.65;;
55692;SDS011;41590;53.366;5.212;2023-02-28T12:42:07;6.85;;;4.93;;
55692;SDS011;41590;53.366;5.212;2023-02-28T12:47:04;4.30;;;3.45;;
55692;SDS011;41590;53.366;5.212;2023-02-28T12:49:33;9.88;;;6.80;;
55692;SDS011;41590;53.366;5.212;2023-02-28T12:52:00;5.07;;;4.13;;
55692;SDS011;41590;53.366;5.212;2023-02-28T12:54:39;4.75;;;4.05;;
55692;SDS011;41590;53.366;5.212;2023-02-28T13:02:33;5.40;;;4.20;;
55692;SDS011;41590;53.366;5.212;2023-02-28T13:05:19;7.97;;;4.37;;
55692;SDS011;41590;53.366;5.212;2023-02-28T13:10:18;5.10;;;3.97;;
55692;SDS011;41590;53.366;5.212;2023-02-28T13:12:51;6.15;;;4.70;;
55692;SDS011;41590;53.366;5.212;2023-02-28T13:15:27;6.43;;;4.57;;
55692;SDS011;41590;53.366;5.212;2023-02-28T13:17:55;5.32;;;4.15;;
55692;SDS011;41590;53.366;5.212;2023-02-28T13:20:26;5.05;;;4.22;;
55692;SDS011;41590;53.366;5.212;2023-02-28T13:22:54;5.78;;;4.47;;
55692;SDS011;41590;53.366;5.212;2023-02-28T13:27:59;4.90;;;4.05;;
55692;SDS011;41590;53.366;5.212;2023-02-28T13:44:16;4.47;;;3.35;;
55692;SDS011;41590;53.366;5.212;2023-02-28T13:58:09;6.28;;;2.80;;
55692;SDS011;41590;53.366;5.212;2023-02-28T14:11:39;4.50;;;2.80;;
55692;SDS011;41590;53.366;5.212;2023-02-28T14:14:06;4.78;;;2.97;;
55692;SDS011;41590;53.366;5.212;2023-02-28T14:16:41;3.30;;;2.65;;
55692;SDS011;41590;53.366;5.212;2023-02-28T14:19:11;3.83;;;3.13;;
55692;SDS011;41590;53.366;5.212;2023-02-28T14:21:43;3.58;;;2.83;;
55692;SDS011;41590;53.366;5.212;2023-02-28T14:34:53;6.85;;;2.65;;
55692;SDS011;41590;53.366;5.212;2023-02-28T14:37:36;5.32;;;3.28;;
55692;SDS011;41590;53.366;5.212;2023-02-28T14:40:11;5.00;;;2.80;;
55692;SDS011;41590;53.366;5.212;2023-02-28T14:42:48;4.78;;;3.40;;
55692;SDS011;41590;53.366;5.212;2023-02-28T14:45:22;8.57;;;4.35;;
55692;SDS011;41590;53.366;5.212;2023-02-28T14:47:57;10.50;;;4.53;;
55692;SDS011;41590;53.366;5.212;2023-02-28T14:50:34;16.35;;;6.50;;
55692;SDS011;41590;53.366;5.212;2023-02-28T14:53:04;8.00;;;4.05;;
55692;SDS011;41590;53.366;5.212;2023-02-28T14:55:43;5.78;;;3.60;;
55692;SDS011;41590;53.366;5.212;2023-02-28T14:58:24;5.95;;;3.95;;
55692;SDS011;41590;53.366;5.212;2023-02-28T15:00:57;5.78;;;3.40;;
55692;SDS011;41590;53.366;5.212;2023-02-28T15:03:33;11.15;;;4.18;;
55692;SDS011;41590;53.366;5.212;2023-02-28T15:06:03;6.10;;;3.67;;
55692;SDS011;41590;53.366;5.212;2023-02-28T15:08:31;8.25;;;3.70;;
55692;SDS011;41590;53.366;5.212;2023-02-28T15:11:06;4.47;;;2.90;;
55692;SDS011;41590;53.366;5.212;2023-02-28T15:13:41;7.55;;;3.63;;
55692;SDS011;41590;53.366;5.212;2023-02-28T15:16:19;5.63;;;3.40;;
55692;SDS011;41590;53.366;5.212;2023-02-28T15:19:02;9.93;;;3.75;;
55692;SDS011;41590;53.366;5.212;2023-02-28T15:21:34;5.93;;;3.15;;
55692;SDS011;41590;53.366;5.212;2023-02-28T15:27:00;6.82;;;3.38;;
55692;SDS011;41590;53.366;5.212;2023-02-28T15:32:29;5.85;;;3.80;;
55692;SDS011;41590;53.366;5.212;2023-02-28T15:37:55;5.15;;;2.65;;
55692;SDS011;41590;53.366;5.212;2023-02-28T15:40:40;6.15;;;3.05;;
55692;SDS011;41590;53.366;5.212;2023-02-28T15:43:30;7.45;;;3.70;;
55692;SDS011;41590;53.366;5.212;2023-02-28T15:48:30;8.73;;;3.88;;
55692;SDS011;41590;53.366;5.212;2023-02-28T15:51:01;7.07;;;4.15;;
55692;SDS011;41590;53.366;5.212;2023-02-28T15:56:29;7.53;;;4.85;;
55692;SDS011;41590;53.366;5.212;2023-02-28T15:59:02;6.28;;;4.38;;
55692;SDS011;41590;53.366;5.212;2023-02-28T16:01:32;8.07;;;4.72;;
55692;SDS011;41590;53.366;5.212;2023-02-28T16:04:00;6.40;;;4.63;;
55692;SDS011;41590;53.366;5.212;2023-02-28T16:06:41;7.65;;;5.13;;
55692;SDS011;41590;53.366;5.212;2023-02-28T16:09:12;8.80;;;5.57;;
55692;SDS011;41590;53.366;5.212;2023-02-28T16:11:44;9.70;;;6.03;;
55692;SDS011;41590;53.366;5.212;2023-02-28T16:14:14;10.65;;;6.15;;
55692;SDS011;41590;53.366;5.212;2023-02-28T16:20:30;10.27;;;5.97;;
55692;SDS011;41590;53.366;5.212;2023-02-28T16:22:56;11.75;;;6.95;;
55692;SDS011;41590;53.366;5.212;2023-02-28T16:25:38;12.45;;;7.35;;
55692;SDS011;41590;53.366;5.212;2023-02-28T16:28:08;15.98;;;7.85;;
55692;SDS011;41590;53.366;5.212;2023-02-28T16:30:42;11.70;;;7.90;;
55692;SDS011;41590;53.366;5.212;2023-02-28T16:33:09;13.25;;;7.47;;
55692;SDS011;41590;53.366;5.212;2023-02-28T16:35:38;11.93;;;6.95;;
55692;SDS011;41590;53.366;5.212;2023-02-28T16:38:08;14.10;;;7.07;;
55692;SDS011;41590;53.366;5.212;2023-02-28T16:41:04;11.57;;;7.00;;
55692;SDS011;41590;53.366;5.212;2023-02-28T16:43:53;11.27;;;7.38;;
55692;SDS011;41590;53.366;5.212;2023-02-28T16:49:58;16.20;;;7.10;;
55692;SDS011;41590;53.366;5.212;2023-02-28T16:52:29;10.73;;;6.40;;
55692;SDS011;41590;53.366;5.212;2023-02-28T16:55:01;14.13;;;6.85;;
55692;SDS011;41590;53.366;5.212;2023-02-28T16:57:33;10.38;;;6.60;;
55692;SDS011;41590;53.366;5.212;2023-02-28T17:00:01;20.63;;;10.18;;
55692;SDS011;41590;53.366;5.212;2023-02-28T17:05:16;11.23;;;6.25;;
55692;SDS011;41590;53.366;5.212;2023-02-28T17:07:49;10.00;;;6.22;;
55692;SDS011;41590;53.366;5.212;2023-02-28T17:10:23;14.35;;;6.22;;
55692;SDS011;41590;53.366;5.212;2023-02-28T17:12:54;11.48;;;6.18;;
55692;SDS011;41590;53.366;5.212;2023-02-28T17:15:21;10.93;;;6.55;;
55692;SDS011;41590;53.366;5.212;2023-02-28T17:17:47;8.73;;;6.22;;
55692;SDS011;41590;53.366;5.212;2023-02-28T17:20:18;15.07;;;5.95;;
55692;SDS011;41590;53.366;5.212;2023-02-28T17:22:52;15.57;;;6.43;;
55692;SDS011;41590;53.366;5.212;2023-02-28T17:25:19;13.77;;;5.63;;
55692;SDS011;41590;53.366;5.212;2023-02-28T17:27:46;12.68;;;6.20;;
55692;SDS011;41590;53.366;5.212;2023-02-28T17:32:44;12.85;;;6.00;;
55692;SDS011;41590;53.366;5.212;2023-02-28T17:35:10;9.63;;;5.47;;
55692;SDS011;41590;53.366;5.212;2023-02-28T17:37:37;9.73;;;5.65;;
55692;SDS011;41590;53.366;5.212;2023-02-28T17:40:03;12.45;;;5.90;;
55692;SDS011;41590;53.366;5.212;2023-02-28T17:42:30;8.10;;;5.80;;
55692;SDS011;41590;53.366;5.212;2023-02-28T17:44:57;11.02;;;5.82;;
55692;SDS011;41590;53.366;5.212;2023-02-28T17:47:25;9.80;;;5.82;;
55692;SDS011;41590;53.366;5.212;2023-02-28T17:49:54;10.18;;;5.72;;
55692;SDS011;41590;53.366;5.212;2023-02-28T17:54:51;11.55;;;7.80;;
55692;SDS011;41590;53.366;5.212;2023-02-28T17:57:16;11.55;;;5.65;;
55692;SDS011;41590;53.366;5.212;2023-02-28T17:59:42;10.52;;;5.90;;
55692;SDS011;41590;53.366;5.212;2023-02-28T18:02:12;10.23;;;6.03;;
55692;SDS011;41590;53.366;5.212;2023-02-28T18:04:38;8.43;;;6.07;;
55692;SDS011;41590;53.366;5.212;2023-02-28T18:07:08;10.80;;;5.70;;
55692;SDS011;41590;53.366;5.212;2023-02-28T18:09:36;9.85;;;6.20;;
55692;SDS011;41590;53.366;5.212;2023-02-28T18:12:02;9.23;;;5.38;;
55692;SDS011;41590;53.366;5.212;2023-02-28T18:14:28;11.85;;;5.00;;
55692;SDS011;41590;53.366;5.212;2023-02-28T18:16:55;12.35;;;5.22;;
55692;SDS011;41590;53.366;5.212;2023-02-28T18:19:21;13.98;;;6.38;;
55692;SDS011;41590;53.366;5.212;2023-02-28T18:21:49;13.88;;;7.22;;
55692;SDS011;41590;53.366;5.212;2023-02-28T18:24:21;9.93;;;7.00;;
55692;SDS011;41590;53.366;5.212;2023-02-28T18:26:48;13.18;;;6.90;;
55692;SDS011;41590;53.366;5.212;2023-02-28T18:29:21;15.35;;;7.35;;
55692;SDS011;41590;53.366;5.212;2023-02-28T18:34:35;16.70;;;9.60;;
55692;SDS011;41590;53.366;5.212;2023-02-28T18:37:03;9.82;;;6.20;;
55692;SDS011;41590;53.366;5.212;2023-02-28T18:39:36;15.88;;;8.73;;
55692;SDS011;41590;53.366;5.212;2023-02-28T18:42:02;13.65;;;7.00;;
55692;SDS011;41590;53.366;5.212;2023-02-28T18:44:33;9.00;;;6.00;;
55692;SDS011;41590;53.366;5.212;2023-02-28T18:46:59;11.07;;;5.90;;
55692;SDS011;41590;53.366;5.212;2023-02-28T18:49:26;13.02;;;6.35;;
55692;SDS011;41590;53.366;5.212;2023-02-28T18:51:54;13.57;;;6.93;;
55692;SDS011;41590;53.366;5.212;2023-02-28T18:54:22;13.00;;;6.40;;
55692;SDS011;41590;53.366;5.212;2023-02-28T18:56:52;12.10;;;6.35;;
55692;SDS011;41590;53.366;5.212;2023-02-28T18:59:24;22.48;;;8.60;;
55692;SDS011;41590;53.366;5.212;2023-02-28T19:01:52;34.15;;;10.90;;
55692;SDS011;41590;53.366;5.212;2023-02-28T19:04:24;30.88;;;10.27;;
55692;SDS011;41590;53.366;5.212;2023-02-28T19:06:50;15.65;;;7.15;;
55692;SDS011;41590;53.366;5.212;2023-02-28T19:09:16;16.33;;;7.13;;
55692;SDS011;41590;53.366;5.212;2023-02-28T19:11:42;11.00;;;7.00;;
55692;SDS011;41590;53.366;5.212;2023-02-28T19:14:09;28.75;;;16.08;;
55692;SDS011;41590;53.366;5.212;2023-02-28T19:16:37;24.25;;;14.50;;
55692;SDS011;41590;53.366;5.212;2023-02-28T19:21:33;27.63;;;15.65;;
55692;SDS011;41590;53.366;5.212;2023-02-28T19:26:31;16.20;;;8.48;;
55692;SDS011;41590;53.366;5.212;2023-02-28T19:29:01;11.63;;;7.72;;
55692;SDS011;41590;53.366;5.212;2023-02-28T19:31:28;14.13;;;7.28;;